createdAt,value
2022-12-08T00:01:59.255Z,10.70
2022-12-08T00:05:40.483Z,11.90
2022-12-08T00:09:01.670Z,11.02
2022-12-08T00:12:07.389Z,11.50
2022-12-08T00:15:10.248Z,11.82
2022-12-08T00:18:12.929Z,10.63
2022-12-08T00:21:15.894Z,10.77
2022-12-08T00:24:19.379Z,10.38
2022-12-08T00:27:22.152Z,11.63
2022-12-08T00:30:24.895Z,10.32
2022-12-08T00:33:28.919Z,11.10
2022-12-08T00:36:31.769Z,10.63
2022-12-08T00:39:34.603Z,11.45
2022-12-08T00:42:37.306Z,11.73
2022-12-08T00:45:40.829Z,10.82
2022-12-08T00:48:43.489Z,10.43
2022-12-08T00:51:46.460Z,10.30
2022-12-08T00:54:49.100Z,9.68
2022-12-08T00:57:51.860Z,10.00
2022-12-08T01:00:54.715Z,10.90
2022-12-08T01:03:57.560Z,10.07
2022-12-08T01:07:00.387Z,10.80
2022-12-08T01:10:03.541Z,11.57
2022-12-08T01:13:06.747Z,10.80
2022-12-08T01:16:10.481Z,9.90
2022-12-08T01:19:15.521Z,10.93
2022-12-08T01:22:18.239Z,11.23
2022-12-08T01:25:20.958Z,10.55
2022-12-08T01:28:24.005Z,9.50
2022-12-08T01:31:26.817Z,10.55
2022-12-08T01:34:29.610Z,9.70
2022-12-08T01:37:32.304Z,9.87
2022-12-08T01:40:35.107Z,9.93
2022-12-08T01:43:58.674Z,10.30
2022-12-08T01:47:01.502Z,10.45
2022-12-08T01:50:08.211Z,10.10
2022-12-08T01:53:19.921Z,9.80
2022-12-08T01:56:40.482Z,9.70
2022-12-08T01:59:49.766Z,10.05
2022-12-08T02:02:57.689Z,9.95
2022-12-08T02:06:00.628Z,10.27
2022-12-08T02:09:03.947Z,10.07
2022-12-08T02:12:07.130Z,10.38
2022-12-08T02:15:10.250Z,8.70
2022-12-08T02:18:27.887Z,9.27
2022-12-08T02:22:00.769Z,9.53
2022-12-08T02:25:20.542Z,8.57
2022-12-08T02:28:55.124Z,9.75
2022-12-08T02:32:33.022Z,9.02
2022-12-08T02:36:06.155Z,9.52
2022-12-08T02:39:25.779Z,8.10
2022-12-08T02:42:38.145Z,8.97
2022-12-08T02:45:50.462Z,9.45
2022-12-08T02:48:53.687Z,8.70
2022-12-08T02:52:28.505Z,9.00
2022-12-08T02:55:43.615Z,8.77
2022-12-08T02:59:14.877Z,8.43
2022-12-08T03:02:35.559Z,8.80
2022-12-08T03:06:13.200Z,8.40
2022-12-08T03:09:35.465Z,8.52
2022-12-08T03:12:43.874Z,8.73
2022-12-08T03:16:07.492Z,8.73
2022-12-08T03:19:20.204Z,8.85
2022-12-08T03:22:25.652Z,8.57
2022-12-08T03:25:33.800Z,9.32
2022-12-08T03:28:36.591Z,7.93
2022-12-08T03:31:44.798Z,8.67
2022-12-08T03:34:50.691Z,8.93
2022-12-08T03:38:02.717Z,8.57
2022-12-08T03:41:20.802Z,7.95
2022-12-08T03:44:23.522Z,8.80
2022-12-08T03:47:26.268Z,8.70
2022-12-08T03:50:28.973Z,8.73
2022-12-08T03:53:31.671Z,9.27
2022-12-08T03:56:38.986Z,9.52
2022-12-08T03:59:41.790Z,7.53
2022-12-08T04:02:44.617Z,8.87
2022-12-08T04:05:47.370Z,8.35
2022-12-08T04:08:51.073Z,8.60
2022-12-08T04:11:53.753Z,8.35
2022-12-08T04:14:56.492Z,8.00
2022-12-08T04:17:59.202Z,8.40
2022-12-08T04:21:02.247Z,7.80
2022-12-08T04:24:05.090Z,8.20
2022-12-08T04:27:07.808Z,7.93
2022-12-08T04:30:11.084Z,7.70
2022-12-08T04:33:13.826Z,8.20
2022-12-08T04:36:16.589Z,7.90
2022-12-08T04:39:19.383Z,7.53
2022-12-08T04:42:22.090Z,8.07
2022-12-08T04:45:24.833Z,7.67
2022-12-08T04:48:27.734Z,7.57
2022-12-08T04:51:30.501Z,7.68
2022-12-08T04:54:33.330Z,7.07
2022-12-08T04:57:36.242Z,8.00
2022-12-08T05:00:38.970Z,7.83
2022-12-08T05:03:42.023Z,7.40
2022-12-08T05:06:44.769Z,7.43
2022-12-08T05:09:49.007Z,7.72
2022-12-08T05:12:51.756Z,7.82
2022-12-08T05:15:54.510Z,7.67
2022-12-08T05:18:57.195Z,7.33
2022-12-08T05:22:00.797Z,7.45
2022-12-08T05:25:03.695Z,7.10
2022-12-08T05:28:39.457Z,7.85
2022-12-08T05:31:29.725Z,7.70
2022-12-08T05:34:32.539Z,7.00
2022-12-08T05:37:35.357Z,7.50
2022-12-08T05:40:39.430Z,7.07
2022-12-08T05:43:42.560Z,7.47
2022-12-08T05:46:45.402Z,7.87
2022-12-08T05:49:48.210Z,7.73
2022-12-08T05:52:50.896Z,7.50
2022-12-08T05:55:54.086Z,7.32
2022-12-08T05:58:56.880Z,7.18
2022-12-08T06:01:59.778Z,6.53
2022-12-08T06:05:03.527Z,8.17
2022-12-08T06:08:06.261Z,7.28
2022-12-08T06:11:09.800Z,7.00
2022-12-08T06:14:12.785Z,6.78
2022-12-08T06:17:15.543Z,7.70
2022-12-08T06:20:18.504Z,7.40
2022-12-08T06:23:21.185Z,6.57
2022-12-08T06:26:24.134Z,6.93
2022-12-08T06:29:26.967Z,7.30
2022-12-08T06:32:29.826Z,6.90
2022-12-08T06:35:32.600Z,7.40
2022-12-08T06:38:38.240Z,6.90
2022-12-08T06:42:03.249Z,7.53
2022-12-08T06:45:06.471Z,7.70
2022-12-08T06:48:09.282Z,6.87
2022-12-08T06:51:17.578Z,7.20
2022-12-08T06:54:21.333Z,6.40
2022-12-08T06:57:24.803Z,6.88
2022-12-08T07:00:27.609Z,7.30
2022-12-08T07:03:30.404Z,7.30
2022-12-08T07:06:33.197Z,7.83
2022-12-08T07:09:36.921Z,7.10
2022-12-08T07:12:39.974Z,7.80
2022-12-08T07:15:42.692Z,6.88
2022-12-08T07:18:45.554Z,6.93
2022-12-08T07:21:48.733Z,6.63
2022-12-08T07:24:51.752Z,6.80
2022-12-08T07:27:55.270Z,6.78
2022-12-08T07:30:58.133Z,6.90
2022-12-08T07:34:01.499Z,7.03
2022-12-08T07:37:04.269Z,6.30
2022-12-08T07:40:08.656Z,6.43
2022-12-08T07:43:11.440Z,6.72
2022-12-08T07:46:16.223Z,6.90
2022-12-08T07:49:19.551Z,7.00
2022-12-08T07:52:22.258Z,6.03
2022-12-08T07:55:25.606Z,6.78
2022-12-08T07:58:28.517Z,6.95
2022-12-08T08:01:33.303Z,6.72
2022-12-08T08:04:36.068Z,7.03
2022-12-08T08:07:42.287Z,7.40
2022-12-08T08:10:46.473Z,7.63
2022-12-08T08:13:50.350Z,7.40
2022-12-08T08:16:53.146Z,6.82
2022-12-08T08:19:56.411Z,7.30
2022-12-08T08:23:01.786Z,6.90
2022-12-08T08:26:05.746Z,8.18
2022-12-08T08:29:08.486Z,7.38
2022-12-08T08:32:11.627Z,7.88
2022-12-08T08:35:14.485Z,7.87
2022-12-08T08:38:17.354Z,7.20
2022-12-08T08:41:20.202Z,7.80
2022-12-08T08:44:28.440Z,7.65
2022-12-08T08:47:31.626Z,8.02
2022-12-08T08:50:37.716Z,8.40
2022-12-08T08:53:41.376Z,7.27
2022-12-08T08:56:44.219Z,7.82
2022-12-08T08:59:47.079Z,8.73
2022-12-08T09:02:49.842Z,7.70
2022-12-08T09:05:53.100Z,7.73
2022-12-08T09:08:56.926Z,7.90
2022-12-08T09:11:59.633Z,8.07
2022-12-08T09:15:02.609Z,8.18
2022-12-08T09:18:09.534Z,9.85
2022-12-08T09:21:20.493Z,9.53
2022-12-08T09:24:23.548Z,10.37
2022-12-08T09:27:26.265Z,9.13
2022-12-08T09:30:29.128Z,9.90
2022-12-08T09:33:31.916Z,9.82
2022-12-08T09:36:34.644Z,9.80
2022-12-08T09:39:37.637Z,9.20
2022-12-08T09:43:21.808Z,8.98
2022-12-08T09:46:29.021Z,8.65
2022-12-08T09:49:42.143Z,8.20
2022-12-08T09:53:00.091Z,7.63
2022-12-08T09:56:05.569Z,8.00
2022-12-08T09:59:27.778Z,7.65
2022-12-08T10:02:31.183Z,7.47
2022-12-08T10:05:41.768Z,7.35
2022-12-08T10:08:59.621Z,7.47
2022-12-08T10:12:40.016Z,7.57
2022-12-08T10:15:47.495Z,7.60
2022-12-08T10:19:01.662Z,6.90
2022-12-08T10:22:15.927Z,6.95
2022-12-08T10:25:22.517Z,7.47
2022-12-08T10:28:25.526Z,6.83
2022-12-08T10:31:30.878Z,6.85
2022-12-08T10:34:33.559Z,6.18
2022-12-08T10:37:36.564Z,6.10
2022-12-08T10:40:45.297Z,6.10
2022-12-08T10:43:54.519Z,6.50
2022-12-08T10:46:57.437Z,7.00
2022-12-08T10:50:23.869Z,6.70
2022-12-08T10:53:44.655Z,5.63
2022-12-08T10:56:57.420Z,5.97
2022-12-08T11:00:00.083Z,6.50
2022-12-08T11:03:04.933Z,5.45
2022-12-08T11:06:20.763Z,6.30
2022-12-08T11:09:38.952Z,5.65
2022-12-08T11:12:44.126Z,5.47
2022-12-08T11:15:47.583Z,5.57
2022-12-08T11:18:57.140Z,5.88
2022-12-08T11:21:59.858Z,5.53
2022-12-08T11:25:10.804Z,5.15
2022-12-08T11:28:13.585Z,5.53
2022-12-08T11:31:37.083Z,5.60
2022-12-08T11:34:52.141Z,5.63
2022-12-08T11:38:23.086Z,5.32
2022-12-08T11:41:38.498Z,5.47
2022-12-08T11:44:55.002Z,5.93
2022-12-08T11:48:06.645Z,6.50
2022-12-08T11:51:17.172Z,5.78
2022-12-08T13:28:17.425Z,5.97
2022-12-08T13:31:52.248Z,5.95
2022-12-08T13:35:00.630Z,6.38
2022-12-08T13:38:03.730Z,6.17
2022-12-08T13:41:17.278Z,5.70
2022-12-08T13:48:26.992Z,6.03
2022-12-08T13:58:46.254Z,5.63
2022-12-08T14:01:50.972Z,5.47
2022-12-08T14:08:57.809Z,5.35
2022-12-08T14:11:56.205Z,5.03
2022-12-08T14:15:06.158Z,5.97
2022-12-08T14:18:24.710Z,6.03
2022-12-08T14:21:35.990Z,5.65
2022-12-08T14:24:40.109Z,6.53
2022-12-08T14:27:43.461Z,5.90
2022-12-08T14:30:48.748Z,6.47
2022-12-08T14:33:56.269Z,6.22
2022-12-08T14:36:59.435Z,6.50
2022-12-08T14:40:22.898Z,6.93
2022-12-08T14:43:28.889Z,6.80
2022-12-08T14:46:31.601Z,6.20
2022-12-08T14:49:36.805Z,6.85
2022-12-08T14:52:44.527Z,6.60
2022-12-08T14:55:48.556Z,6.65
2022-12-08T14:59:04.982Z,6.13
2022-12-08T15:02:26.615Z,5.67
2022-12-08T15:05:31.285Z,6.82
2022-12-08T15:08:50.103Z,5.93
2022-12-08T15:12:04.784Z,6.70
2022-12-08T15:15:10.124Z,6.03
2022-12-08T15:18:28.876Z,6.93
2022-12-08T15:21:37.450Z,6.38
2022-12-08T15:24:40.121Z,6.50
2022-12-08T15:27:50.158Z,6.25
2022-12-08T15:30:54.224Z,5.60
2022-12-08T15:33:56.924Z,5.80
2022-12-08T15:36:59.649Z,5.55
2022-12-08T15:40:02.735Z,5.93
2022-12-08T15:43:05.755Z,5.75
2022-12-08T15:46:08.510Z,6.83
2022-12-08T15:49:17.568Z,5.47
2022-12-08T15:52:23.273Z,5.80
2022-12-08T15:55:25.981Z,5.60
2022-12-08T15:58:52.886Z,6.03
2022-12-08T16:01:52.485Z,5.30
2022-12-08T16:12:09.381Z,5.57
2022-12-08T16:18:38.961Z,5.37
2022-12-08T16:25:22.326Z,5.45
2022-12-08T16:28:52.828Z,5.15
2022-12-08T16:31:48.879Z,5.60
2022-12-08T16:34:52.296Z,5.23
2022-12-08T16:37:55.008Z,5.27
2022-12-08T16:41:15.900Z,5.55
2022-12-08T16:44:18.794Z,5.93
2022-12-08T16:47:21.938Z,6.13
2022-12-08T16:50:32.339Z,5.40
2022-12-08T16:53:34.990Z,5.33
2022-12-08T16:56:37.742Z,6.70
2022-12-08T16:59:40.828Z,6.15
2022-12-08T17:02:45.341Z,5.70
2022-12-08T17:05:48.192Z,6.00
2022-12-08T17:08:51.343Z,6.07
2022-12-08T17:11:58.805Z,6.78
2022-12-08T17:15:08.908Z,6.25
2022-12-08T17:18:12.446Z,6.10
2022-12-08T17:21:17.557Z,5.67
2022-12-08T17:24:22.287Z,5.70
2022-12-08T17:27:25.780Z,6.15
2022-12-08T17:30:28.859Z,5.65
2022-12-08T17:33:31.978Z,5.40
2022-12-08T17:36:36.212Z,5.80
2022-12-08T17:39:40.030Z,5.40
2022-12-08T17:42:42.824Z,5.05
2022-12-08T17:45:48.151Z,5.57
2022-12-08T17:48:51.490Z,5.25
2022-12-08T17:51:56.992Z,5.07
2022-12-08T17:55:00.363Z,4.63
2022-12-08T17:58:03.933Z,5.80
2022-12-08T18:01:10.748Z,5.57
2022-12-08T18:04:14.157Z,5.43
2022-12-08T18:07:17.852Z,5.43
2022-12-08T18:10:20.801Z,5.50
2022-12-08T18:13:25.071Z,6.20
2022-12-08T18:16:28.776Z,5.55
2022-12-08T18:19:32.105Z,5.93
2022-12-08T18:22:35.388Z,5.47
2022-12-08T18:25:38.164Z,5.77
2022-12-08T18:28:41.845Z,5.97
2022-12-08T18:31:48.973Z,5.90
2022-12-08T18:34:52.401Z,5.30
2022-12-08T18:37:56.430Z,5.77
2022-12-08T18:41:12.922Z,5.53
2022-12-08T18:44:16.002Z,5.10
2022-12-08T18:47:19.892Z,5.70
2022-12-08T18:50:23.681Z,5.47
2022-12-08T18:53:27.143Z,5.47
2022-12-08T18:56:32.936Z,5.47
2022-12-08T18:59:37.083Z,5.65
2022-12-08T19:02:41.840Z,5.45
2022-12-08T19:05:46.195Z,5.82
2022-12-08T19:08:51.243Z,5.40
2022-12-08T19:11:55.323Z,5.43
2022-12-08T19:14:58.591Z,4.88
2022-12-08T19:18:02.509Z,5.47
2022-12-08T19:21:06.001Z,5.20
2022-12-08T19:24:10.966Z,5.67
2022-12-08T19:27:16.467Z,5.73
2022-12-08T19:30:20.631Z,5.65
2022-12-08T19:33:43.793Z,5.78
2022-12-08T19:36:48.956Z,5.10
2022-12-08T19:40:14.596Z,5.67
2022-12-08T19:43:39.263Z,5.70
2022-12-08T19:46:43.137Z,5.93
2022-12-08T19:49:46.955Z,4.75
2022-12-08T19:52:50.755Z,6.13
2022-12-08T19:55:54.788Z,5.10
2022-12-08T19:58:58.217Z,6.60
2022-12-08T20:02:02.500Z,6.47
2022-12-08T20:05:07.327Z,5.47
2022-12-08T20:08:11.470Z,5.32
2022-12-08T20:11:15.220Z,5.80
2022-12-08T20:14:19.318Z,5.83
2022-12-08T20:17:22.861Z,5.68
2022-12-08T20:20:26.621Z,5.68
2022-12-08T20:23:30.560Z,6.03
2022-12-08T20:26:35.702Z,6.00
2022-12-08T20:29:40.218Z,6.00
2022-12-08T20:32:45.722Z,5.95
2022-12-08T20:36:01.435Z,5.57
2022-12-08T20:39:05.003Z,5.80
2022-12-08T20:42:13.631Z,6.10
2022-12-08T20:45:17.472Z,6.37
2022-12-08T20:48:21.583Z,5.55
2022-12-08T20:51:31.437Z,6.80
2022-12-08T20:54:35.993Z,6.72
2022-12-08T20:57:39.540Z,6.83
2022-12-08T21:00:43.198Z,7.83
2022-12-08T21:03:47.621Z,6.28
2022-12-08T21:06:50.913Z,7.10
2022-12-08T21:09:54.864Z,7.43
2022-12-08T21:12:58.121Z,6.70
2022-12-08T21:16:01.461Z,7.20
2022-12-08T21:19:05.272Z,7.55
2022-12-08T21:22:08.218Z,8.13
2022-12-08T21:25:11.296Z,8.75
2022-12-08T21:28:14.299Z,6.97
2022-12-08T21:31:19.143Z,7.80
2022-12-08T21:34:22.205Z,7.60
2022-12-08T21:37:25.243Z,7.18
2022-12-08T21:40:28.938Z,6.65
2022-12-08T21:43:31.898Z,6.37
2022-12-08T21:46:34.825Z,6.40
2022-12-08T21:49:38.276Z,6.75
2022-12-08T21:52:43.336Z,6.32
2022-12-08T21:55:46.596Z,6.22
2022-12-08T21:58:50.751Z,7.07
2022-12-08T22:01:53.748Z,6.37
2022-12-08T22:04:56.652Z,6.50
2022-12-08T22:07:59.775Z,6.25
2022-12-08T22:11:02.808Z,5.97
2022-12-08T22:14:09.600Z,5.83
2022-12-08T22:17:17.561Z,6.10
2022-12-08T22:20:20.999Z,6.30
2022-12-08T22:23:24.270Z,5.78
2022-12-08T22:26:27.438Z,6.15
2022-12-08T22:29:30.465Z,6.37
2022-12-08T22:32:33.541Z,5.93
2022-12-08T22:35:36.680Z,7.35
2022-12-08T22:38:40.658Z,6.55
2022-12-08T22:41:43.770Z,6.68
2022-12-08T22:44:46.767Z,7.00
2022-12-08T22:47:49.740Z,6.40
2022-12-08T22:50:59.783Z,7.43
2022-12-08T22:54:02.898Z,6.70
2022-12-08T22:57:06.137Z,6.00
2022-12-08T23:00:11.986Z,6.33
2022-12-08T23:03:15.611Z,6.37
2022-12-08T23:06:18.564Z,7.30
2022-12-08T23:09:23.982Z,6.43
2022-12-08T23:12:26.981Z,6.40
2022-12-08T23:15:29.588Z,6.50
2022-12-08T23:18:32.231Z,7.33
2022-12-08T23:21:34.885Z,6.10
2022-12-08T23:24:37.652Z,6.60
2022-12-08T23:27:40.747Z,6.25
2022-12-08T23:30:44.342Z,6.37
2022-12-08T23:33:49.908Z,5.67
2022-12-08T23:36:54.750Z,6.10
2022-12-08T23:39:57.713Z,5.65
2022-12-08T23:43:00.412Z,6.70
2022-12-08T23:46:03.783Z,6.67
2022-12-08T23:49:07.071Z,6.10
2022-12-08T23:52:13.471Z,6.35
2022-12-08T23:55:16.214Z,6.60
2022-12-08T23:58:19.134Z,6.50
